Time;durP1;ratioP1;P1;durP2;ratioP2;P2;SDS_P1;SDS_P2;PMS_P1;PMS_P2;Temp;Humidity;BMP_temperature;BMP_pressure;BME280_temperature;BME280_humidity;BME280_pressure;Samples;Min_cycle;Max_cycle;Signal;HPM_P1;HPM_P2
2021/06/13 00:00:14;;;;;;;6.67;5.50;;;;;;;17.22;79.38;100348.61;1744511;81;20928;-74
2021/06/13 00:02:43;;;;;;;6.40;5.80;;;;;;;17.21;79.39;100347.78;1744979;81;20980;-75
2021/06/13 00:05:14;;;;;;;9.48;5.75;;;;;;;17.20;79.38;100348.25;1745347;82;21792;-73
2021/06/13 00:07:41;;;;;;;7.97;6.00;;;;;;;17.18;79.53;100345.39;1746646;82;20952;-72
2021/06/13 00:10:09;;;;;;;8.50;6.72;;;;;;;17.17;79.58;100341.91;1746190;80;20928;-73
2021/06/13 00:12:36;;;;;;;7.78;6.58;;;;;;;17.15;79.68;100338.56;1745392;81;21450;-73
2021/06/13 00:15:07;;;;;;;8.05;6.62;;;;;;;17.12;79.77;100332.70;1747111;81;21426;-71
2021/06/13 00:17:34;;;;;;;11.63;6.50;;;;;;;17.10;79.87;100342.14;1744836;82;21105;-74
2021/06/13 00:20:01;;;;;;;6.42;5.12;;;;;;;17.10;80.03;100338.66;1744540;82;20860;-73
2021/06/13 00:22:28;;;;;;;7.60;6.15;;;;;;;17.08;80.01;100337.97;1744924;81;21363;-74
2021/06/13 00:24:55;;;;;;;7.95;5.40;;;;;;;17.09;80.05;100338.30;1744576;81;20965;-74
2021/06/13 00:27:22;;;;;;;5.85;5.35;;;;;;;17.06;80.03;100328.82;1744768;81;20987;-71
2021/06/13 00:29:49;;;;;;;6.08;5.45;;;;;;;17.05;80.14;100323.19;1744500;81;21152;-72
2021/06/13 00:32:16;;;;;;;5.58;4.83;;;;;;;17.04;80.24;100322.00;1744746;82;20881;-73
2021/06/13 00:34:43;;;;;;;10.13;5.80;;;;;;;17.04;80.52;100324.15;1744520;81;21484;-73
2021/06/13 00:37:10;;;;;;;6.10;5.50;;;;;;;17.06;80.66;100324.84;1744814;82;20909;-73
2021/06/13 00:39:37;;;;;;;6.67;5.25;;;;;;;17.10;80.70;100318.30;1687384;84;21330;-73
2021/06/13 00:42:04;;;;;;;7.30;5.55;;;;;;;17.14;80.37;100320.15;1708788;84;21207;-73
2021/06/13 00:44:31;;;;;;;5.22;4.72;;;;;;;17.14;80.37;100320.15;1711409;83;20944;-73
2021/06/13 00:46:59;;;;;;;5.62;4.20;;;;;;;17.16;80.38;100308.45;1711731;83;20904;-73
2021/06/13 00:49:26;;;;;;;5.45;4.60;;;;;;;17.18;79.94;100310.95;1711714;82;20920;-73
2021/06/13 00:51:53;;;;;;;5.25;3.95;;;;;;;17.19;79.84;100307.33;1711861;83;20983;-72
2021/06/13 00:54:20;;;;;;;4.20;3.87;;;;;;;17.23;79.42;100304.75;1711707;83;21074;-72
2021/06/13 00:56:47;;;;;;;5.45;3.90;;;;;;;17.23;79.42;100304.75;1711677;83;20952;-75
2021/06/13 00:59:14;;;;;;;4.08;3.70;;;;;;;17.29;78.53;100310.78;1711829;83;20976;-73
2021/06/13 01:01:42;;;;;;;4.90;4.42;;;;;;;17.31;78.70;100309.32;1698825;82;20936;-73
2021/06/13 01:04:09;;;;;;;6.00;4.72;;;;;;;17.31;78.70;100309.32;1711850;82;20880;-73
2021/06/13 01:07:03;;;;;;;5.05;4.05;;;;;;;17.33;78.59;100300.73;1711750;83;21201;-72
2021/06/13 01:09:41;;;;;;;8.05;3.87;;;;;;;17.34;78.73;100304.58;1711677;82;21395;-71
2021/06/13 01:12:12;;;;;;;3.98;3.55;;;;;;;17.33;78.47;100303.39;1711711;83;20931;-72
2021/06/13 01:15:01;;;;;;;7.25;4.03;;;;;;;17.29;78.63;100294.87;1710883;83;20904;-72
2021/06/13 01:17:42;;;;;;;4.12;3.50;;;;;;;17.27;78.61;100294.67;1711701;83;20959;-72
2021/06/13 01:20:28;;;;;;;4.00;3.37;;;;;;;17.24;78.81;100289.67;1750100;81;21135;-73
2021/06/13 01:23:36;;;;;;;5.47;3.77;;;;;;;17.23;78.87;100289.31;1749870;81;21354;-72
2021/06/13 01:26:32;;;;;;;4.83;4.15;;;;;;;17.22;79.04;100284.51;1711940;83;20932;-71
2021/06/13 01:29:12;;;;;;;6.10;3.70;;;;;;;17.19;79.10;100284.31;1711820;83;20908;-71
2021/06/13 01:31:49;;;;;;;4.12;3.72;;;;;;;17.17;79.06;100282.30;1712193;83;20979;-72
2021/06/13 01:34:24;;;;;;;4.60;4.20;;;;;;;17.12;79.15;100285.87;1686831;83;21147;-73
2021/06/13 01:36:54;;;;;;;5.08;4.58;;;;;;;17.08;79.10;100286.30;1749904;80;21438;-72
2021/06/13 01:39:25;;;;;;;4.83;4.33;;;;;;;17.07;78.73;100279.31;1750167;80;21429;-73
2021/06/13 01:41:54;;;;;;;6.75;4.40;;;;;;;17.09;78.49;100279.52;1750250;81;20965;-73
2021/06/13 01:44:23;;;;;;;6.22;4.47;;;;;;;17.10;78.27;100277.22;1746492;82;20941;-72
2021/06/13 01:46:52;;;;;;;6.45;4.40;;;;;;;17.14;78.27;100277.75;1744678;82;21205;-71
2021/06/13 01:49:20;;;;;;;7.03;4.35;;;;;;;17.13;78.09;100283.55;1744815;82;20980;-71
2021/06/13 01:51:48;;;;;;;6.00;4.50;;;;;;;17.13;77.95;100278.25;1744854;82;21386;-73
2021/06/13 01:54:17;;;;;;;5.37;4.03;;;;;;;17.12;77.95;100269.97;1744640;80;20913;-72
2021/06/13 01:56:48;;;;;;;4.90;4.15;;;;;;;17.08;78.19;100271.73;1687716;84;20893;-72
2021/06/13 01:59:17;;;;;;;4.08;3.67;;;;;;;16.99;78.23;100266.79;1734527;82;21806;-71
2021/06/13 02:01:47;;;;;;;5.30;3.92;;;;;;;16.99;78.23;100266.79;1708376;84;20932;-71
2021/06/13 02:04:14;;;;;;;5.87;4.25;;;;;;;16.95;78.54;100268.88;1709017;84;21413;-72
2021/06/13 02:06:57;;;;;;;4.47;3.95;;;;;;;16.95;78.83;100268.88;1744476;81;20862;-72
2021/06/13 02:09:26;;;;;;;5.25;3.60;;;;;;;16.97;78.92;100268.25;1708745;84;20884;-73
2021/06/13 02:11:56;;;;;;;4.95;4.28;;;;;;;16.98;78.68;100267.28;1708848;84;21173;-74
2021/06/13 02:14:24;;;;;;;9.38;3.90;;;;;;;16.97;78.68;100269.57;1708969;82;20984;-73
2021/06/13 02:16:53;;;;;;;7.08;4.47;;;;;;;16.97;78.78;100274.04;1744295;81;20929;-72
2021/06/13 02:19:23;;;;;;;7.97;4.78;;;;;;;16.96;78.88;100271.89;1744569;81;20956;-73
2021/06/13 02:21:55;;;;;;;6.28;3.92;;;;;;;16.97;78.72;100278.84;1708918;83;20996;-73
2021/06/13 02:24:30;;;;;;;7.37;4.00;;;;;;;16.98;78.76;100277.88;1708755;84;21159;-73
2021/06/13 02:26:59;;;;;;;7.85;4.33;;;;;;;16.97;78.37;100272.22;1744996;81;20869;-73
2021/06/13 02:29:27;;;;;;;5.12;4.00;;;;;;;16.97;78.37;100272.22;1744662;82;20896;-73
2021/06/13 02:31:55;;;;;;;8.43;4.15;;;;;;;17.01;78.82;100275.44;1744550;81;20944;-73
2021/06/13 02:34:24;;;;;;;7.45;4.00;;;;;;;17.03;78.91;100272.16;1744835;81;20972;-73
2021/06/13 02:36:54;;;;;;;13.43;4.65;;;;;;;17.04;78.79;100272.98;1745058;82;21807;-73
2021/06/13 02:39:21;;;;;;;10.63;4.30;;;;;;;17.06;79.04;100279.80;1744871;81;21530;-72
2021/06/13 02:41:49;;;;;;;7.05;4.60;;;;;;;17.12;79.23;100281.03;1744797;82;21051;-73
2021/06/13 02:44:19;;;;;;;4.90;3.90;;;;;;;17.16;79.02;100277.98;1744642;82;20881;-72
2021/06/13 02:46:47;;;;;;;5.95;4.25;;;;;;;17.17;78.89;100277.48;1744546;81;20873;-72
2021/06/13 02:49:15;;;;;;;7.55;4.12;;;;;;;17.19;79.04;100278.19;1744597;81;21118;-72
2021/06/13 02:52:03;;;;;;;7.45;4.33;;;;;;;17.24;79.18;100279.08;1708690;82;21521;-72
2021/06/13 02:54:31;;;;;;;5.95;3.98;;;;;;;17.27;79.17;100282.75;1744622;82;20918;-72
2021/06/13 02:56:59;;;;;;;12.13;3.70;;;;;;;17.30;78.94;100285.13;1744920;81;20873;-71
2021/06/13 02:59:42;;;;;;;10.00;4.37;;;;;;;17.32;78.51;100289.77;1744670;81;20877;-72
2021/06/13 03:02:21;;;;;;;8.90;5.05;;;;;;;17.37;77.99;100286.22;1744089;81;21162;-72
2021/06/13 03:04:49;;;;;;;4.75;3.70;;;;;;;17.46;77.47;100288.50;1734240;80;20929;-73
2021/06/13 03:07:19;;;;;;;4.67;4.10;;;;;;;17.53;77.17;100293.56;1744815;80;20920;-73
2021/06/13 03:09:51;;;;;;;6.08;3.80;;;;;;;17.60;76.93;100290.66;1744562;81;20929;-73
2021/06/13 03:12:19;;;;;;;5.22;3.98;;;;;;;17.68;76.77;100288.63;1744852;81;21007;-72
2021/06/13 03:14:51;;;;;;;6.55;5.10;;;;;;;17.77;76.64;100294.37;1664684;84;21326;-72
2021/06/13 03:17:18;;;;;;;5.42;3.42;;;;;;;17.84;76.63;100289.35;1709001;84;20924;-72
2021/06/13 03:19:47;;;;;;;7.78;3.77;;;;;;;17.91;76.48;100289.09;1708763;84;21450;-72
2021/06/13 03:22:14;;;;;;;4.87;3.95;;;;;;;17.96;76.22;100285.03;1708978;84;20939;-73
2021/06/13 03:24:42;;;;;;;4.72;3.95;;;;;;;18.04;76.16;100285.60;1708715;84;20959;-73
2021/06/13 03:27:09;;;;;;;5.62;4.80;;;;;;;18.12;75.68;100286.17;1708761;82;21211;-73
2021/06/13 03:29:40;;;;;;;5.97;4.25;;;;;;;18.19;75.67;100288.09;1708667;82;20881;-72
2021/06/13 03:32:10;;;;;;;9.08;4.75;;;;;;;18.26;75.63;100286.17;1709189;84;20845;-72
2021/06/13 03:34:39;;;;;;;7.33;4.47;;;;;;;18.33;75.62;100286.73;1708749;84;20939;-72
2021/06/13 03:37:09;;;;;;;9.90;4.78;;;;;;;18.40;75.42;100290.95;1709014;83;20924;-72
2021/06/13 03:39:38;;;;;;;5.90;4.80;;;;;;;18.47;75.01;100292.02;1708831;84;21792;-72
2021/06/13 03:42:06;;;;;;;7.10;5.33;;;;;;;18.54;75.00;100296.23;1708956;84;20888;-73
2021/06/13 03:44:33;;;;;;;5.90;5.20;;;;;;;18.61;74.84;100292.83;1712489;83;20884;-72
2021/06/13 03:47:00;;;;;;;8.93;5.70;;;;;;;18.68;74.41;100293.05;1716925;83;21026;-72
2021/06/13 03:49:29;;;;;;;7.70;5.97;;;;;;;18.76;73.96;100293.10;1718096;83;20892;-72
2021/06/13 03:51:55;;;;;;;7.62;5.60;;;;;;;18.83;73.76;100290.70;1718449;83;21801;-73
2021/06/13 03:54:22;;;;;;;11.33;5.78;;;;;;;18.92;73.64;100294.25;1716617;83;20979;-72
2021/06/13 03:56:59;;;;;;;16.10;5.50;;;;;;;18.99;73.64;100297.48;1717896;83;21334;-70
2021/06/13 03:59:27;;;;;;;7.05;5.53;;;;;;;19.12;73.65;100294.91;1717040;83;20931;-72
2021/06/13 04:01:54;;;;;;;6.53;5.80;;;;;;;19.29;73.24;100294.02;1716724;82;20860;-71
2021/06/13 04:04:21;;;;;;;7.47;5.70;;;;;;;19.54;72.84;100298.16;1733588;82;21165;-72
2021/06/13 04:06:53;;;;;;;7.22;5.15;;;;;;;19.86;72.19;100284.21;1752365;82;20932;-73
2021/06/13 04:09:18;;;;;;;9.15;6.15;;;;;;;20.25;71.41;100292.49;1715592;82;20951;-73
2021/06/13 04:11:52;;;;;;;9.23;6.03;;;;;;;20.80;70.16;100291.06;1716410;82;20864;-75
2021/06/13 04:14:19;;;;;;;8.53;6.00;;;;;;;21.40;68.36;100291.66;1716621;82;21038;-73
2021/06/13 04:16:47;;;;;;;6.80;5.17;;;;;;;22.06;66.39;100292.28;1716989;83;22143;-73
2021/06/13 04:19:16;;;;;;;9.65;5.95;;;;;;;22.65;64.43;100288.58;1716328;82;21465;-73
2021/06/13 04:21:45;;;;;;;9.95;6.37;;;;;;;23.24;62.55;100300.48;1716342;82;20975;-71
2021/06/13 04:24:17;;;;;;;6.75;5.67;;;;;;;23.79;60.95;100303.25;1716256;83;21599;-70
2021/06/13 04:26:46;;;;;;;7.92;5.72;;;;;;;24.28;59.56;100297.23;1716946;83;21426;-72
2021/06/13 04:29:15;;;;;;;8.73;5.67;;;;;;;24.75;57.99;100299.89;1716460;83;21166;-72
2021/06/13 04:31:42;;;;;;;9.38;5.40;;;;;;;25.14;56.71;100291.83;1716443;83;20979;-73
2021/06/13 04:34:09;;;;;;;10.58;5.45;;;;;;;25.50;55.71;100290.88;1716547;83;21345;-73
2021/06/13 04:36:36;;;;;;;5.58;4.87;;;;;;;25.83;54.66;100282.98;1716157;83;20889;-72
2021/06/13 04:39:03;;;;;;;5.33;4.90;;;;;;;26.16;53.64;100292.20;1752592;81;21472;-72
2021/06/13 04:41:34;;;;;;;5.55;4.53;;;;;;;26.48;52.87;100289.28;1733806;82;21186;-71
2021/06/13 04:44:01;;;;;;;8.13;4.53;;;;;;;26.82;51.98;100291.52;1753315;81;21015;-73
2021/06/13 04:46:31;;;;;;;9.75;4.80;;;;;;;27.14;51.11;100293.05;1757840;80;20884;-73
2021/06/13 04:48:58;;;;;;;5.33;4.20;;;;;;;27.46;50.13;100290.03;1757680;81;21510;-73
2021/06/13 04:51:26;;;;;;;4.35;3.95;;;;;;;27.76;49.30;100290.33;1757892;81;20928;-72
2021/06/13 04:54:02;;;;;;;6.92;4.08;;;;;;;28.05;48.57;100294.91;1758081;81;21117;-73
2021/06/13 04:57:05;;;;;;;6.35;3.75;;;;;;;28.32;48.02;100283.44;1757789;81;20924;-72
2021/06/13 04:59:32;;;;;;;7.47;5.08;;;;;;;28.57;47.31;100286.73;1758017;81;20877;-72
2021/06/13 05:02:00;;;;;;;4.30;3.58;;;;;;;28.84;46.09;100282.80;1757833;81;20944;-73
2021/06/13 05:04:29;;;;;;;4.47;3.80;;;;;;;29.07;45.52;100279.45;1757943;81;20912;-72
2021/06/13 05:06:56;;;;;;;3.35;3.05;;;;;;;29.33;45.25;100278.41;1757932;81;21143;-73
2021/06/13 05:09:23;;;;;;;4.05;3.33;;;;;;;29.57;45.22;100281.78;1758141;81;20937;-73
2021/06/13 05:11:50;;;;;;;4.35;3.62;;;;;;;29.80;45.05;100276.55;1758040;81;20885;-72
2021/06/13 05:14:17;;;;;;;8.55;3.90;;;;;;;30.05;44.67;100280.47;1758203;80;21105;-72
2021/06/13 05:16:43;;;;;;;5.40;3.60;;;;;;;30.27;44.36;100283.53;1758062;80;20971;-72
2021/06/13 05:19:11;;;;;;;3.60;3.30;;;;;;;30.48;43.46;100284.91;1757867;81;22006;-72
2021/06/13 05:21:38;;;;;;;3.75;2.92;;;;;;;30.71;43.05;100284.64;1757895;81;21038;-73
2021/06/13 05:24:05;;;;;;;4.37;3.58;;;;;;;30.93;42.62;100291.17;1758313;81;20948;-77
2021/06/13 05:26:33;;;;;;;5.05;2.87;;;;;;;31.14;41.51;100280.80;1757991;80;20932;-75
2021/06/13 05:28:59;;;;;;;3.10;2.90;;;;;;;31.38;40.74;100287.03;1758221;81;20987;-77
2021/06/13 05:31:27;;;;;;;4.05;3.37;;;;;;;31.61;39.99;100282.11;1758095;80;21350;-78
2021/06/13 05:33:54;;;;;;;2.45;2.25;;;;;;;31.79;39.61;100286.55;1758121;81;20932;-79
2021/06/13 05:36:22;;;;;;;6.65;2.60;;;;;;;31.99;38.67;100278.86;1758036;81;21476;-80
2021/06/13 05:38:49;;;;;;;2.95;2.67;;;;;;;32.18;38.37;100281.36;1758098;81;20970;-76
2021/06/13 05:41:16;;;;;;;2.83;2.62;;;;;;;32.36;37.50;100277.06;1758042;80;21458;-78
2021/06/13 05:43:44;;;;;;;6.28;2.45;;;;;;;32.56;37.35;100273.09;1758000;81;21098;-77
2021/06/13 05:46:11;;;;;;;6.37;2.85;;;;;;;32.70;37.21;100277.66;1757547;81;20920;-76
2021/06/13 05:48:40;;;;;;;3.33;2.08;;;;;;;32.83;36.75;100285.47;1741338;81;20908;-76
2021/06/13 05:51:07;;;;;;;2.67;2.27;;;;;;;32.95;36.36;100278.06;1757952;80;20960;-78
2021/06/13 05:53:35;;;;;;;6.78;2.40;;;;;;;33.07;36.46;100284.78;1758096;81;20979;-77
2021/06/13 05:56:01;;;;;;;7.17;3.42;;;;;;;33.19;36.05;100284.13;1758153;80;21107;-77
2021/06/13 05:58:29;;;;;;;4.40;4.00;;;;;;;33.32;35.78;100281.59;1757836;81;21003;-79
2021/06/13 06:00:55;;;;;;;4.90;2.65;;;;;;;33.47;35.09;100285.06;1758026;80;21406;-77
2021/06/13 06:03:22;;;;;;;3.52;2.05;;;;;;;33.59;34.46;100279.52;1757838;81;20983;-79
2021/06/13 06:05:51;;;;;;;3.75;2.52;;;;;;;33.67;34.76;100276.37;1758320;81;21007;-77
2021/06/13 06:08:19;;;;;;;4.65;2.22;;;;;;;33.80;34.77;100275.98;1758046;80;21774;-77
2021/06/13 06:10:49;;;;;;;2.30;1.70;;;;;;;33.96;34.76;100277.52;1757788;81;20893;-80
2021/06/13 06:13:17;;;;;;;4.45;2.30;;;;;;;34.10;34.04;100275.20;1757883;80;20901;-78
2021/06/13 06:15:44;;;;;;;3.83;2.27;;;;;;;34.23;34.08;100274.27;1757919;81;20944;-78
2021/06/13 06:18:11;;;;;;;4.35;2.50;;;;;;;34.32;33.49;100270.54;1757994;81;20977;-80
2021/06/13 06:20:39;;;;;;;2.55;1.80;;;;;;;34.38;33.27;100271.42;1757872;80;21091;-79
2021/06/13 06:23:06;;;;;;;4.58;2.35;;;;;;;34.47;32.97;100269.32;1721840;83;20952;-77
2021/06/13 06:25:33;;;;;;;3.37;3.08;;;;;;;34.59;32.94;100273.22;1721902;82;21476;-79
2021/06/13 06:28:01;;;;;;;4.05;3.65;;;;;;;34.70;32.94;100267.89;1721899;83;20896;-78
2021/06/13 06:30:28;;;;;;;3.20;2.95;;;;;;;34.72;32.51;100266.55;1722117;82;20931;-77
2021/06/13 06:32:56;;;;;;;6.10;3.25;;;;;;;34.70;32.39;100263.81;1721850;82;21992;-78
2021/06/13 06:35:29;;;;;;;3.00;2.80;;;;;;;34.76;32.31;100263.58;1722067;83;20928;-80
2021/06/13 06:37:56;;;;;;;4.67;3.02;;;;;;;34.88;32.89;100264.74;1721827;83;20931;-78
2021/06/13 06:40:23;;;;;;;5.62;3.60;;;;;;;35.01;32.96;100256.66;1721971;83;20962;-78
2021/06/13 06:42:50;;;;;;;9.50;3.33;;;;;;;35.09;32.73;100261.07;1722178;82;20939;-79
2021/06/13 06:45:17;;;;;;;5.10;2.67;;;;;;;35.17;31.70;100254.31;1719425;82;21089;-79
2021/06/13 06:47:45;;;;;;;5.65;2.90;;;;;;;35.20;31.80;100252.99;1716689;83;20947;-78
2021/06/13 06:50:14;;;;;;;3.95;2.62;;;;;;;35.21;32.19;100249.16;1733767;82;20912;-79
2021/06/13 06:52:40;;;;;;;4.92;2.70;;;;;;;35.28;31.68;100253.83;1752731;82;21458;-79
2021/06/13 06:55:09;;;;;;;3.77;2.70;;;;;;;35.35;31.75;100253.59;1752469;82;20904;-79
2021/06/13 06:57:38;;;;;;;5.05;3.37;;;;;;;35.45;31.41;100251.73;1752525;82;21082;-80
2021/06/13 07:00:07;;;;;;;4.47;2.70;;;;;;;35.52;30.97;100254.77;1752822;82;20896;-80
2021/06/13 07:02:34;;;;;;;3.25;2.98;;;;;;;35.53;31.28;100248.20;1752633;80;20920;-80
2021/06/13 07:05:02;;;;;;;6.08;3.27;;;;;;;35.54;30.79;100249.86;1752789;82;21019;-81
2021/06/13 07:07:29;;;;;;;4.75;3.17;;;;;;;35.63;30.92;100253.19;1752631;82;20929;-77
2021/06/13 07:09:56;;;;;;;6.53;4.15;;;;;;;35.74;30.23;100247.77;1752782;82;21103;-79
2021/06/13 07:12:25;;;;;;;3.90;3.40;;;;;;;35.80;29.91;100239.88;1752719;82;20960;-79
2021/06/13 07:14:52;;;;;;;4.40;3.83;;;;;;;35.76;30.39;100245.59;1716774;83;20982;-83
2021/06/13 07:17:19;;;;;;;5.15;4.22;;;;;;;35.73;30.29;100249.69;1716369;83;21588;-72
2021/06/13 07:19:46;;;;;;;13.00;5.78;;;;;;;35.75;30.00;100248.84;1716466;83;20929;-71
2021/06/13 07:22:13;;;;;;;5.62;4.55;;;;;;;35.81;30.01;100246.41;1716331;83;21137;-72
2021/06/13 07:24:40;;;;;;;5.78;5.15;;;;;;;35.87;29.98;100244.53;1752869;81;21524;-74
2021/06/13 07:27:07;;;;;;;11.48;4.30;;;;;;;35.96;29.68;100242.91;1753660;82;20893;-75
2021/06/13 07:29:34;;;;;;;6.72;5.12;;;;;;;36.05;29.77;100244.56;1755118;82;20940;-75
2021/06/13 07:32:01;;;;;;;7.70;5.08;;;;;;;36.12;29.56;100238.31;1754541;82;20924;-74
2021/06/13 07:34:28;;;;;;;8.05;3.62;;;;;;;36.13;29.42;100235.88;1754645;80;21298;-74
2021/06/13 07:36:57;;;;;;;6.87;3.87;;;;;;;36.07;28.71;100236.37;1754800;82;20865;-74
2021/06/13 07:39:24;;;;;;;6.00;3.10;;;;;;;36.06;28.72;100242.94;1752685;82;20952;-73
2021/06/13 07:41:53;;;;;;;12.63;3.00;;;;;;;36.07;28.20;100239.10;1752581;82;21019;-75
2021/06/13 07:44:20;;;;;;;4.05;3.35;;;;;;;36.10;28.54;100237.73;1752556;80;20853;-74
2021/06/13 07:46:47;;;;;;;4.67;2.87;;;;;;;36.22;28.42;100238.34;1744388;82;21175;-76
2021/06/13 07:49:14;;;;;;;2.40;2.20;;;;;;;36.27;28.03;100238.33;1744496;81;20960;-78
2021/06/13 07:51:41;;;;;;;4.17;3.33;;;;;;;36.27;28.17;100235.59;1734170;82;20976;-74
2021/06/13 07:54:08;;;;;;;3.95;3.00;;;;;;;36.33;28.37;100240.53;1744385;81;20849;-75
2021/06/13 07:56:35;;;;;;;5.30;2.98;;;;;;;36.42;28.56;100237.52;1744581;82;20924;-73
2021/06/13 07:59:02;;;;;;;5.03;2.55;;;;;;;36.55;28.78;100238.86;1744416;82;22038;-74
2021/06/13 08:01:29;;;;;;;5.35;2.72;;;;;;;36.69;28.21;100232.34;1744505;81;20858;-73
2021/06/13 08:03:56;;;;;;;2.72;2.50;;;;;;;36.81;28.60;100233.41;1744451;81;21371;-73
2021/06/13 08:06:23;;;;;;;7.12;2.90;;;;;;;36.80;28.47;100223.02;1744377;82;21003;-76
2021/06/13 08:08:50;;;;;;;3.35;3.05;;;;;;;36.84;28.65;100224.11;1744757;81;20857;-74
2021/06/13 08:11:17;;;;;;;6.00;3.60;;;;;;;36.91;28.36;100224.63;1744820;82;21399;-74
2021/06/13 08:13:44;;;;;;;3.42;2.72;;;;;;;36.94;27.75;100224.63;1744417;82;20925;-75
2021/06/13 08:16:11;;;;;;;5.08;2.33;;;;;;;36.89;26.99;100220.55;1744793;82;20976;-74
2021/06/13 08:18:38;;;;;;;2.58;2.25;;;;;;;36.68;27.13;100221.93;1744661;80;20901;-74
2021/06/13 08:21:05;;;;;;;3.77;2.30;;;;;;;36.58;27.83;100218.39;1744503;82;21374;-75
2021/06/13 08:23:32;;;;;;;3.70;2.33;;;;;;;36.58;27.68;100212.37;1744702;81;21116;-72
2021/06/13 08:25:59;;;;;;;5.17;2.77;;;;;;;36.68;28.35;100215.09;1744474;82;21509;-76
2021/06/13 08:28:26;;;;;;;7.00;2.92;;;;;;;36.81;27.94;100215.08;1744372;81;20913;-73
2021/06/13 08:30:53;;;;;;;6.65;5.83;;;;;;;36.96;26.52;100214.23;1744818;82;20980;-73
2021/06/13 08:33:20;;;;;;;5.60;2.62;;;;;;;36.99;26.90;100215.03;1708795;83;20940;-74
2021/06/13 08:35:47;;;;;;;5.92;3.00;;;;;;;37.00;26.73;100213.95;1708770;84;21190;-75
2021/06/13 08:38:13;;;;;;;3.83;2.87;;;;;;;36.78;27.46;100217.56;1708942;84;21030;-76
2021/06/13 08:40:40;;;;;;;3.08;2.77;;;;;;;36.31;28.03;100220.31;1708982;84;20924;-76
2021/06/13 08:43:07;;;;;;;3.72;2.67;;;;;;;35.86;28.52;100216.43;1708734;84;20902;-75
2021/06/13 08:45:35;;;;;;;3.17;2.52;;;;;;;35.21;29.66;100222.72;1708795;83;21034;-76
2021/06/13 08:48:03;;;;;;;3.20;2.90;;;;;;;34.60;30.11;100213.59;1708714;84;21093;-74
2021/06/13 08:50:31;;;;;;;6.00;2.95;;;;;;;34.12;30.57;100215.92;1708410;84;20888;-75
2021/06/13 08:52:58;;;;;;;5.28;3.22;;;;;;;33.63;31.63;100211.31;1708665;84;20920;-75
2021/06/13 08:55:25;;;;;;;4.70;3.15;;;;;;;33.24;32.39;100218.98;1708683;84;21498;-74
2021/06/13 09:00:50;;;;;;;7.37;3.80;;;;;;;32.38;33.25;100213.86;1798619;79;22804;-75
2021/06/13 09:03:19;;;;;;;4.35;3.67;;;;;;;31.92;34.22;100210.85;1695773;83;21365;-74
2021/06/13 09:05:46;;;;;;;5.15;3.62;;;;;;;31.50;34.52;100206.53;1695752;84;21157;-75
2021/06/13 09:08:14;;;;;;;19.75;4.60;;;;;;;31.08;35.87;100217.58;1695764;83;20966;-77
2021/06/13 09:10:45;;;;;;;9.45;4.62;;;;;;;30.66;38.52;100218.17;1695699;84;21000;-75
2021/06/13 09:13:18;;;;;;;13.72;6.92;;;;;;;30.14;41.21;100221.48;1695723;84;21506;-74
2021/06/13 09:15:52;;;;;;;4.83;3.30;;;;;;;29.58;44.29;100225.34;1695753;83;20967;-75
2021/06/13 09:18:46;;;;;;;6.95;2.85;;;;;;;28.88;43.38;100230.52;1695739;84;21100;-75
2021/06/13 09:21:26;;;;;;;6.50;2.60;;;;;;;28.13;42.19;100227.78;1695661;83;20978;-74
2021/06/13 09:23:54;;;;;;;4.97;2.30;;;;;;;27.42;42.08;100231.70;1695880;84;20997;-76
2021/06/13 09:26:27;;;;;;;2.40;1.70;;;;;;;26.86;41.67;100226.84;1695759;84;21002;-75
2021/06/13 09:28:56;;;;;;;5.92;2.27;;;;;;;26.47;41.21;100228.45;1696053;84;21013;-73
2021/06/13 09:31:30;;;;;;;3.08;2.62;;;;;;;26.14;44.63;100231.09;1668620;84;21249;-75
2021/06/13 09:33:59;;;;;;;4.50;3.12;;;;;;;25.84;44.96;100213.95;1695720;83;20919;-75
2021/06/13 09:36:31;;;;;;;6.87;3.30;;;;;;;25.60;46.62;100217.98;1695678;84;20919;-74
2021/06/13 09:39:05;;;;;;;6.47;4.30;;;;;;;25.42;48.62;100206.45;1695800;84;20883;-75
2021/06/13 09:41:39;;;;;;;6.35;3.95;;;;;;;25.37;52.28;100200.86;1695311;84;20939;-74
2021/06/13 09:44:08;;;;;;;;;;;;;;;25.56;52.80;100188.02;1698250;83;21421;-75
2021/06/13 09:46:40;;;;;;;5.85;4.22;;;;;;;25.59;52.61;100180.91;1711098;83;20402;-75
2021/06/13 09:49:13;;;;;;;5.25;4.30;;;;;;;25.68;53.38;100188.28;1695810;84;20919;-75
2021/06/13 09:51:45;;;;;;;9.15;4.80;;;;;;;25.69;53.72;100182.39;1696073;84;21453;-74
2021/06/13 09:54:26;;;;;;;3.93;3.53;;;;;;;25.74;53.62;100185.28;1696270;83;21440;-75
2021/06/13 09:56:56;;;;;;;4.12;3.22;;;;;;;25.85;51.21;100183.35;1695686;84;21137;-73
2021/06/13 09:59:32;;;;;;;3.77;3.37;;;;;;;26.14;51.04;100177.34;1691351;84;20960;-72
2021/06/13 10:02:02;;;;;;;4.80;3.30;;;;;;;26.43;50.84;100180.14;1745153;81;21379;-74
2021/06/13 10:04:32;;;;;;;4.30;3.80;;;;;;;26.74;50.70;100184.09;1745099;80;20925;-75
2021/06/13 10:07:03;;;;;;;7.37;4.40;;;;;;;27.07;50.20;100183.51;1745146;81;20928;-74
2021/06/13 10:09:39;;;;;;;6.15;5.20;;;;;;;27.20;51.68;100178.61;1743583;82;21130;-75
2021/06/13 10:12:10;;;;;;;7.50;4.62;;;;;;;27.39;51.62;100179.63;1744542;81;20970;-75
2021/06/13 10:14:39;;;;;;;4.62;4.22;;;;;;;27.63;50.84;100184.77;1744248;81;20853;-75
2021/06/13 10:17:06;;;;;;;5.53;4.28;;;;;;;28.01;51.60;100179.92;1744656;80;20969;-74
2021/06/13 10:19:45;;;;;;;7.95;4.22;;;;;;;28.50;51.30;100183.76;1744774;81;20952;-75
2021/06/13 10:22:13;;;;;;;5.58;3.80;;;;;;;28.81;49.97;100186.05;1744561;81;21098;-75
2021/06/13 10:24:42;;;;;;;4.25;3.33;;;;;;;29.13;47.66;100177.34;1744578;81;20897;-74
2021/06/13 10:27:19;;;;;;;5.45;3.22;;;;;;;29.25;45.96;100175.23;1744674;81;20924;-77
2021/06/13 10:29:51;;;;;;;9.18;3.67;;;;;;;29.27;44.79;100169.90;1744580;81;20936;-77
2021/06/13 10:32:21;;;;;;;6.17;3.10;;;;;;;29.25;44.63;100164.42;1744639;81;21458;-75
2021/06/13 10:34:49;;;;;;;6.60;3.20;;;;;;;29.11;44.41;100159.18;1744675;81;21957;-75
2021/06/13 10:37:18;;;;;;;5.70;5.15;;;;;;;28.98;44.42;100161.18;1734156;82;20866;-75
2021/06/13 10:39:48;;;;;;;5.53;4.87;;;;;;;28.82;45.57;100157.20;1744567;81;20976;-73
2021/06/13 10:42:14;;;;;;;6.97;3.77;;;;;;;28.68;45.18;100165.93;1744287;81;20944;-75
2021/06/13 10:44:51;;;;;;;7.20;4.42;;;;;;;28.53;45.13;100161.43;1744713;81;20976;-75
2021/06/13 10:47:18;;;;;;;3.72;3.42;;;;;;;28.38;45.93;100165.25;1744585;82;21125;-75
2021/06/13 10:49:47;;;;;;;5.62;3.60;;;;;;;28.25;46.41;100160.77;1744755;81;21390;-75
2021/06/13 10:52:22;;;;;;;4.60;3.58;;;;;;;28.11;45.91;100164.10;1744573;81;21426;-76
2021/06/13 10:54:55;;;;;;;3.40;2.83;;;;;;;27.98;46.69;100166.07;1744535;82;20904;-76
2021/06/13 10:57:32;;;;;;;3.37;2.10;;;;;;;27.82;46.04;100162.81;1744855;80;21023;-75
2021/06/13 11:00:05;;;;;;;2.80;1.90;;;;;;;27.67;46.03;100161.75;1744525;80;21166;-74
2021/06/13 11:02:43;;;;;;;4.62;2.37;;;;;;;27.56;46.15;100162.44;1742417;81;21007;-75
2021/06/13 11:05:10;;;;;;;2.20;1.92;;;;;;;27.48;46.65;100160.83;1744653;82;20916;-73
2021/06/13 11:07:44;;;;;;;5.47;3.10;;;;;;;27.39;47.32;100162.13;1744800;80;20897;-73
2021/06/13 11:10:15;;;;;;;4.17;2.25;;;;;;;27.31;46.66;100166.39;1745064;81;21374;-71
2021/06/13 11:13:08;;;;;;;3.20;2.85;;;;;;;27.18;46.96;100163.19;1745488;81;21184;-70
2021/06/13 11:15:45;;;;;;;6.92;6.22;;;;;;;27.09;47.40;100163.12;1745271;80;20986;-69
2021/06/13 11:18:30;;;;;;;3.83;3.52;;;;;;;26.98;48.50;100171.84;1744516;81;20945;-73
2021/06/13 11:21:18;;;;;;;6.03;3.22;;;;;;;26.88;49.12;100167.73;1744959;80;20861;-73
2021/06/13 11:23:46;;;;;;;3.60;2.62;;;;;;;26.95;49.01;100168.23;1744545;81;20928;-72
2021/06/13 11:26:35;;;;;;;3.52;2.62;;;;;;;27.15;49.99;100169.53;1744540;81;21140;-76
2021/06/13 11:29:02;;;;;;;4.28;1.87;;;;;;;27.43;50.29;100163.84;1744491;81;20921;-73
2021/06/13 11:31:30;;;;;;;6.50;2.10;;;;;;;27.75;49.03;100159.34;1744634;81;20897;-76
2021/06/13 11:34:01;;;;;;;3.27;1.60;;;;;;;27.98;48.10;100157.45;1734156;82;21438;-74
2021/06/13 11:36:40;;;;;;;5.60;1.72;;;;;;;28.14;47.42;100154.75;1744818;82;20901;-73
2021/06/13 11:39:14;;;;;;;4.42;1.75;;;;;;;28.26;47.00;100154.35;1744519;81;21081;-73